sensor_id;sensor_type;location;lat;lon;timestamp;P1;durP1;ratioP1;P2;durP2;ratioP2
10170;SDS011;5127;50.922;6.988;2022-08-19T00:00:39;5.13;;;4.63;;
10170;SDS011;5127;50.922;6.988;2022-08-19T00:03:06;4.82;;;4.43;;
10170;SDS011;5127;50.922;6.988;2022-08-19T00:05:34;5.38;;;4.82;;
10170;SDS011;5127;50.922;6.988;2022-08-19T00:08:01;5.40;;;4.88;;
10170;SDS011;5127;50.922;6.988;2022-08-19T00:10:30;5.68;;;5.18;;
10170;SDS011;5127;50.922;6.988;2022-08-19T00:12:58;5.78;;;5.28;;
10170;SDS011;5127;50.922;6.988;2022-08-19T00:15:25;6.60;;;5.00;;
10170;SDS011;5127;50.922;6.988;2022-08-19T00:17:53;5.45;;;4.95;;
10170;SDS011;5127;50.922;6.988;2022-08-19T00:20:21;5.82;;;5.32;;
10170;SDS011;5127;50.922;6.988;2022-08-19T00:22:48;6.25;;;5.75;;
10170;SDS011;5127;50.922;6.988;2022-08-19T00:25:17;6.03;;;5.55;;
10170;SDS011;5127;50.922;6.988;2022-08-19T00:27:45;5.78;;;5.28;;
10170;SDS011;5127;50.922;6.988;2022-08-19T00:30:14;5.80;;;5.30;;
10170;SDS011;5127;50.922;6.988;2022-08-19T00:32:41;5.70;;;5.30;;
10170;SDS011;5127;50.922;6.988;2022-08-19T00:35:09;5.47;;;5.07;;
10170;SDS011;5127;50.922;6.988;2022-08-19T00:37:36;5.65;;;5.10;;
10170;SDS011;5127;50.922;6.988;2022-08-19T00:40:09;5.43;;;4.93;;
10170;SDS011;5127;50.922;6.988;2022-08-19T00:42:37;5.72;;;5.30;;
10170;SDS011;5127;50.922;6.988;2022-08-19T00:45:08;6.25;;;5.55;;
10170;SDS011;5127;50.922;6.988;2022-08-19T00:47:39;5.25;;;4.85;;
10170;SDS011;5127;50.922;6.988;2022-08-19T00:50:07;5.57;;;5.05;;
10170;SDS011;5127;50.922;6.988;2022-08-19T00:52:36;6.22;;;5.63;;
10170;SDS011;5127;50.922;6.988;2022-08-19T00:55:07;5.70;;;5.20;;
10170;SDS011;5127;50.922;6.988;2022-08-19T00:57:38;5.20;;;4.70;;
10170;SDS011;5127;50.922;6.988;2022-08-19T01:00:07;5.93;;;5.03;;
10170;SDS011;5127;50.922;6.988;2022-08-19T01:02:40;5.32;;;4.82;;
10170;SDS011;5127;50.922;6.988;2022-08-19T01:05:09;6.07;;;5.10;;
10170;SDS011;5127;50.922;6.988;2022-08-19T01:07:40;5.65;;;5.25;;
10170;SDS011;5127;50.922;6.988;2022-08-19T01:10:09;6.25;;;5.57;;
10170;SDS011;5127;50.922;6.988;2022-08-19T01:12:39;6.35;;;5.75;;
10170;SDS011;5127;50.922;6.988;2022-08-19T01:15:07;5.63;;;5.22;;
10170;SDS011;5127;50.922;6.988;2022-08-19T01:17:38;6.25;;;5.65;;
10170;SDS011;5127;50.922;6.988;2022-08-19T01:20:09;5.25;;;4.82;;
10170;SDS011;5127;50.922;6.988;2022-08-19T01:22:40;5.45;;;5.05;;
10170;SDS011;5127;50.922;6.988;2022-08-19T01:25:11;5.50;;;5.03;;
10170;SDS011;5127;50.922;6.988;2022-08-19T01:27:41;5.13;;;4.72;;
10170;SDS011;5127;50.922;6.988;2022-08-19T01:30:12;5.47;;;5.07;;
10170;SDS011;5127;50.922;6.988;2022-08-19T01:32:41;5.95;;;5.45;;
10170;SDS011;5127;50.922;6.988;2022-08-19T01:35:09;6.07;;;5.07;;
10170;SDS011;5127;50.922;6.988;2022-08-19T01:37:46;6.18;;;5.60;;
10170;SDS011;5127;50.922;6.988;2022-08-19T01:40:17;6.07;;;5.50;;
10170;SDS011;5127;50.922;6.988;2022-08-19T01:42:45;5.88;;;5.38;;
10170;SDS011;5127;50.922;6.988;2022-08-19T01:45:12;6.15;;;5.65;;
10170;SDS011;5127;50.922;6.988;2022-08-19T01:47:40;6.25;;;5.65;;
10170;SDS011;5127;50.922;6.988;2022-08-19T01:50:08;6.82;;;6.15;;
10170;SDS011;5127;50.922;6.988;2022-08-19T01:52:37;6.63;;;6.03;;
10170;SDS011;5127;50.922;6.988;2022-08-19T01:55:08;6.55;;;5.97;;
10170;SDS011;5127;50.922;6.988;2022-08-19T01:57:37;6.80;;;6.28;;
10170;SDS011;5127;50.922;6.988;2022-08-19T02:00:09;6.43;;;5.93;;
10170;SDS011;5127;50.922;6.988;2022-08-19T02:02:39;7.07;;;6.40;;
10170;SDS011;5127;50.922;6.988;2022-08-19T02:05:07;7.50;;;6.80;;
10170;SDS011;5127;50.922;6.988;2022-08-19T02:07:35;7.38;;;6.78;;
10170;SDS011;5127;50.922;6.988;2022-08-19T02:10:03;7.25;;;6.55;;
10170;SDS011;5127;50.922;6.988;2022-08-19T02:12:33;7.68;;;6.45;;
10170;SDS011;5127;50.922;6.988;2022-08-19T02:15:01;7.82;;;7.13;;
10170;SDS011;5127;50.922;6.988;2022-08-19T02:17:29;6.90;;;6.40;;
10170;SDS011;5127;50.922;6.988;2022-08-19T02:19:57;8.00;;;7.30;;
10170;SDS011;5127;50.922;6.988;2022-08-19T02:22:24;7.60;;;7.00;;
10170;SDS011;5127;50.922;6.988;2022-08-19T02:24:52;8.90;;;8.05;;
10170;SDS011;5127;50.922;6.988;2022-08-19T02:27:19;8.85;;;8.15;;
10170;SDS011;5127;50.922;6.988;2022-08-19T02:29:48;8.00;;;7.40;;
10170;SDS011;5127;50.922;6.988;2022-08-19T02:32:17;8.48;;;7.78;;
10170;SDS011;5127;50.922;6.988;2022-08-19T02:34:45;8.50;;;7.70;;
10170;SDS011;5127;50.922;6.988;2022-08-19T02:37:13;8.55;;;7.82;;
10170;SDS011;5127;50.922;6.988;2022-08-19T02:39:54;9.13;;;8.25;;
10170;SDS011;5127;50.922;6.988;2022-08-19T02:42:21;8.60;;;7.85;;
10170;SDS011;5127;50.922;6.988;2022-08-19T02:44:50;9.77;;;8.98;;
10170;SDS011;5127;50.922;6.988;2022-08-19T02:47:18;8.50;;;7.80;;
10170;SDS011;5127;50.922;6.988;2022-08-19T02:49:46;8.70;;;7.90;;
10170;SDS011;5127;50.922;6.988;2022-08-19T02:52:15;8.80;;;8.10;;
10170;SDS011;5127;50.922;6.988;2022-08-19T02:54:42;10.05;;;9.18;;
10170;SDS011;5127;50.922;6.988;2022-08-19T02:57:10;9.48;;;8.70;;
10170;SDS011;5127;50.922;6.988;2022-08-19T02:59:37;9.70;;;8.90;;
10170;SDS011;5127;50.922;6.988;2022-08-19T03:02:06;10.63;;;9.77;;
10170;SDS011;5127;50.922;6.988;2022-08-19T03:04:33;11.48;;;10.43;;
10170;SDS011;5127;50.922;6.988;2022-08-19T03:07:01;10.80;;;9.70;;
10170;SDS011;5127;50.922;6.988;2022-08-19T03:09:28;10.55;;;9.65;;
10170;SDS011;5127;50.922;6.988;2022-08-19T03:11:55;10.60;;;9.70;;
10170;SDS011;5127;50.922;6.988;2022-08-19T03:14:23;10.65;;;9.73;;
10170;SDS011;5127;50.922;6.988;2022-08-19T03:16:50;9.48;;;8.73;;
10170;SDS011;5127;50.922;6.988;2022-08-19T03:19:20;10.13;;;9.23;;
10170;SDS011;5127;50.922;6.988;2022-08-19T03:21:48;11.00;;;10.10;;
10170;SDS011;5127;50.922;6.988;2022-08-19T03:24:15;9.98;;;9.10;;
10170;SDS011;5127;50.922;6.988;2022-08-19T03:26:44;8.77;;;8.07;;
10170;SDS011;5127;50.922;6.988;2022-08-19T03:29:14;8.52;;;7.82;;
10170;SDS011;5127;50.922;6.988;2022-08-19T03:31:42;10.18;;;9.18;;
10170;SDS011;5127;50.922;6.988;2022-08-19T03:34:12;10.40;;;9.60;;
10170;SDS011;5127;50.922;6.988;2022-08-19T03:36:42;9.82;;;8.93;;
10170;SDS011;5127;50.922;6.988;2022-08-19T03:39:10;10.20;;;9.30;;
10170;SDS011;5127;50.922;6.988;2022-08-19T03:41:38;9.80;;;9.00;;
10170;SDS011;5127;50.922;6.988;2022-08-19T03:44:07;11.55;;;10.45;;
10170;SDS011;5127;50.922;6.988;2022-08-19T03:46:35;10.05;;;9.15;;
10170;SDS011;5127;50.922;6.988;2022-08-19T03:49:03;11.23;;;10.18;;
10170;SDS011;5127;50.922;6.988;2022-08-19T03:51:33;10.93;;;10.02;;
10170;SDS011;5127;50.922;6.988;2022-08-19T03:54:04;10.80;;;9.32;;
10170;SDS011;5127;50.922;6.988;2022-08-19T03:56:33;11.05;;;10.05;;
10170;SDS011;5127;50.922;6.988;2022-08-19T03:59:01;11.52;;;10.52;;
10170;SDS011;5127;50.922;6.988;2022-08-19T04:01:29;11.40;;;10.30;;
10170;SDS011;5127;50.922;6.988;2022-08-19T04:03:57;9.82;;;9.02;;
10170;SDS011;5127;50.922;6.988;2022-08-19T04:06:27;11.05;;;10.05;;
10170;SDS011;5127;50.922;6.988;2022-08-19T04:08:56;10.98;;;10.07;;
10170;SDS011;5127;50.922;6.988;2022-08-19T04:11:27;10.48;;;9.57;;
10170;SDS011;5127;50.922;6.988;2022-08-19T04:13:56;11.00;;;10.07;;
10170;SDS011;5127;50.922;6.988;2022-08-19T04:16:25;9.65;;;8.85;;
10170;SDS011;5127;50.922;6.988;2022-08-19T04:18:54;10.70;;;9.70;;
10170;SDS011;5127;50.922;6.988;2022-08-19T04:21:23;10.38;;;9.48;;
10170;SDS011;5127;50.922;6.988;2022-08-19T04:23:51;10.48;;;9.38;;
10170;SDS011;5127;50.922;6.988;2022-08-19T04:26:20;9.93;;;9.02;;
10170;SDS011;5127;50.922;6.988;2022-08-19T04:28:50;9.45;;;8.65;;
10170;SDS011;5127;50.922;6.988;2022-08-19T04:31:20;9.02;;;8.23;;
10170;SDS011;5127;50.922;6.988;2022-08-19T04:33:56;9.85;;;8.98;;
10170;SDS011;5127;50.922;6.988;2022-08-19T04:36:47;8.63;;;7.93;;
10170;SDS011;5127;50.922;6.988;2022-08-19T04:39:17;10.07;;;9.07;;
10170;SDS011;5127;50.922;6.988;2022-08-19T04:41:46;10.90;;;9.90;;
10170;SDS011;5127;50.922;6.988;2022-08-19T04:44:33;10.32;;;9.43;;
10170;SDS011;5127;50.922;6.988;2022-08-19T04:47:01;9.73;;;8.82;;
10170;SDS011;5127;50.922;6.988;2022-08-19T04:49:31;10.13;;;9.18;;
10170;SDS011;5127;50.922;6.988;2022-08-19T04:51:58;10.35;;;9.45;;
10170;SDS011;5127;50.922;6.988;2022-08-19T04:54:25;9.85;;;9.05;;
10170;SDS011;5127;50.922;6.988;2022-08-19T04:56:53;9.75;;;8.80;;
10170;SDS011;5127;50.922;6.988;2022-08-19T04:59:20;11.05;;;9.93;;
10170;SDS011;5127;50.922;6.988;2022-08-19T05:01:49;10.82;;;9.85;;
10170;SDS011;5127;50.922;6.988;2022-08-19T05:04:17;11.57;;;10.55;;
10170;SDS011;5127;50.922;6.988;2022-08-19T05:06:46;10.48;;;9.48;;
10170;SDS011;5127;50.922;6.988;2022-08-19T05:09:15;10.43;;;9.38;;
10170;SDS011;5127;50.922;6.988;2022-08-19T05:11:43;10.73;;;9.70;;
10170;SDS011;5127;50.922;6.988;2022-08-19T05:14:11;9.65;;;8.65;;
10170;SDS011;5127;50.922;6.988;2022-08-19T05:16:38;10.50;;;9.60;;
10170;SDS011;5127;50.922;6.988;2022-08-19T05:19:08;10.07;;;9.15;;
10170;SDS011;5127;50.922;6.988;2022-08-19T05:21:52;10.13;;;9.20;;
10170;SDS011;5127;50.922;6.988;2022-08-19T05:24:52;9.25;;;8.35;;
10170;SDS011;5127;50.922;6.988;2022-08-19T05:27:20;10.73;;;9.70;;
10170;SDS011;5127;50.922;6.988;2022-08-19T05:29:47;12.20;;;10.98;;
10170;SDS011;5127;50.922;6.988;2022-08-19T05:32:15;11.95;;;10.65;;
10170;SDS011;5127;50.922;6.988;2022-08-19T05:34:43;13.93;;;11.45;;
10170;SDS011;5127;50.922;6.988;2022-08-19T05:37:11;17.20;;;15.25;;
10170;SDS011;5127;50.922;6.988;2022-08-19T05:39:38;17.52;;;15.77;;
10170;SDS011;5127;50.922;6.988;2022-08-19T05:42:06;18.40;;;16.73;;
10170;SDS011;5127;50.922;6.988;2022-08-19T05:44:37;17.98;;;16.25;;
10170;SDS011;5127;50.922;6.988;2022-08-19T05:47:09;18.27;;;16.58;;
10170;SDS011;5127;50.922;6.988;2022-08-19T05:49:38;18.70;;;16.80;;
10170;SDS011;5127;50.922;6.988;2022-08-19T05:52:07;18.05;;;16.30;;
10170;SDS011;5127;50.922;6.988;2022-08-19T05:54:37;17.77;;;16.00;;
10170;SDS011;5127;50.922;6.988;2022-08-19T05:57:05;17.17;;;15.65;;
10170;SDS011;5127;50.922;6.988;2022-08-19T05:59:33;17.65;;;15.85;;
10170;SDS011;5127;50.922;6.988;2022-08-19T06:02:01;18.30;;;16.63;;
10170;SDS011;5127;50.922;6.988;2022-08-19T06:04:29;17.60;;;16.08;;
10170;SDS011;5127;50.922;6.988;2022-08-19T06:06:56;17.77;;;16.20;;
10170;SDS011;5127;50.922;6.988;2022-08-19T06:09:25;16.83;;;15.35;;
10170;SDS011;5127;50.922;6.988;2022-08-19T06:11:53;16.85;;;15.32;;
10170;SDS011;5127;50.922;6.988;2022-08-19T06:14:27;16.35;;;14.77;;
10170;SDS011;5127;50.922;6.988;2022-08-19T06:16:56;16.48;;;14.88;;
10170;SDS011;5127;50.922;6.988;2022-08-19T06:19:27;17.35;;;15.65;;
10170;SDS011;5127;50.922;6.988;2022-08-19T06:21:55;16.42;;;14.82;;
10170;SDS011;5127;50.922;6.988;2022-08-19T06:24:26;15.73;;;14.25;;
10170;SDS011;5127;50.922;6.988;2022-08-19T06:26:55;17.08;;;15.50;;
10170;SDS011;5127;50.922;6.988;2022-08-19T06:29:24;16.15;;;14.57;;
10170;SDS011;5127;50.922;6.988;2022-08-19T06:31:53;16.05;;;14.63;;
10170;SDS011;5127;50.922;6.988;2022-08-19T06:34:21;16.63;;;15.13;;
10170;SDS011;5127;50.922;6.988;2022-08-19T06:36:50;16.20;;;14.68;;
10170;SDS011;5127;50.922;6.988;2022-08-19T06:39:19;15.35;;;14.05;;
10170;SDS011;5127;50.922;6.988;2022-08-19T06:41:52;16.35;;;14.73;;
10170;SDS011;5127;50.922;6.988;2022-08-19T06:44:21;15.40;;;13.90;;
10170;SDS011;5127;50.922;6.988;2022-08-19T06:46:51;17.10;;;15.45;;
10170;SDS011;5127;50.922;6.988;2022-08-19T06:49:19;15.70;;;14.25;;
10170;SDS011;5127;50.922;6.988;2022-08-19T06:51:47;16.25;;;14.68;;
10170;SDS011;5127;50.922;6.988;2022-08-19T06:54:15;16.10;;;14.60;;
10170;SDS011;5127;50.922;6.988;2022-08-19T06:56:43;15.90;;;14.38;;
10170;SDS011;5127;50.922;6.988;2022-08-19T06:59:13;14.80;;;13.43;;
10170;SDS011;5127;50.922;6.988;2022-08-19T07:01:43;14.93;;;13.60;;
10170;SDS011;5127;50.922;6.988;2022-08-19T07:04:12;13.98;;;12.60;;
10170;SDS011;5127;50.922;6.988;2022-08-19T07:06:41;15.35;;;13.15;;
10170;SDS011;5127;50.922;6.988;2022-08-19T07:09:10;15.55;;;14.05;;
10170;SDS011;5127;50.922;6.988;2022-08-19T07:11:38;14.27;;;13.00;;
10170;SDS011;5127;50.922;6.988;2022-08-19T07:14:10;12.82;;;11.57;;
10170;SDS011;5127;50.922;6.988;2022-08-19T07:16:39;14.70;;;13.38;;
10170;SDS011;5127;50.922;6.988;2022-08-19T07:19:06;13.50;;;12.20;;
10170;SDS011;5127;50.922;6.988;2022-08-19T07:21:33;13.65;;;12.35;;
10170;SDS011;5127;50.922;6.988;2022-08-19T07:24:03;13.55;;;12.35;;
10170;SDS011;5127;50.922;6.988;2022-08-19T07:26:31;13.43;;;12.15;;
10170;SDS011;5127;50.922;6.988;2022-08-19T07:29:00;14.35;;;12.52;;
10170;SDS011;5127;50.922;6.988;2022-08-19T07:31:27;13.18;;;11.93;;
10170;SDS011;5127;50.922;6.988;2022-08-19T07:33:56;13.05;;;11.73;;
10170;SDS011;5127;50.922;6.988;2022-08-19T07:36:25;11.88;;;10.77;;
10170;SDS011;5127;50.922;6.988;2022-08-19T07:38:58;12.75;;;11.55;;
10170;SDS011;5127;50.922;6.988;2022-08-19T07:41:28;11.85;;;9.85;;
10170;SDS011;5127;50.922;6.988;2022-08-19T07:43:57;10.18;;;9.27;;
10170;SDS011;5127;50.922;6.988;2022-08-19T07:46:29;9.98;;;9.05;;
10170;SDS011;5127;50.922;6.988;2022-08-19T07:48:58;10.13;;;9.07;;
10170;SDS011;5127;50.922;6.988;2022-08-19T07:51:27;11.25;;;10.23;;
10170;SDS011;5127;50.922;6.988;2022-08-19T07:53:54;11.60;;;10.43;;
10170;SDS011;5127;50.922;6.988;2022-08-19T07:56:22;11.05;;;9.95;;
10170;SDS011;5127;50.922;6.988;2022-08-19T07:58:50;11.80;;;10.80;;
10170;SDS011;5127;50.922;6.988;2022-08-19T08:01:19;12.48;;;11.27;;
10170;SDS011;5127;50.922;6.988;2022-08-19T08:03:48;11.48;;;10.38;;
10170;SDS011;5127;50.922;6.988;2022-08-19T08:06:36;12.15;;;11.05;;
10170;SDS011;5127;50.922;6.988;2022-08-19T08:09:22;12.13;;;10.88;;
10170;SDS011;5127;50.922;6.988;2022-08-19T08:11:53;12.32;;;11.23;;
10170;SDS011;5127;50.922;6.988;2022-08-19T08:14:25;11.88;;;10.68;;
10170;SDS011;5127;50.922;6.988;2022-08-19T08:16:55;13.15;;;11.90;;
10170;SDS011;5127;50.922;6.988;2022-08-19T08:19:23;13.00;;;11.70;;
10170;SDS011;5127;50.922;6.988;2022-08-19T08:21:53;14.30;;;12.93;;
10170;SDS011;5127;50.922;6.988;2022-08-19T08:24:22;13.80;;;12.52;;
10170;SDS011;5127;50.922;6.988;2022-08-19T08:26:49;14.80;;;13.32;;
10170;SDS011;5127;50.922;6.988;2022-08-19T08:29:16;14.98;;;12.15;;
10170;SDS011;5127;50.922;6.988;2022-08-19T08:31:45;15.15;;;13.65;;
10170;SDS011;5127;50.922;6.988;2022-08-19T08:34:13;14.90;;;13.45;;
10170;SDS011;5127;50.922;6.988;2022-08-19T08:36:42;15.20;;;13.57;;
10170;SDS011;5127;50.922;6.988;2022-08-19T08:39:13;15.07;;;13.65;;
10170;SDS011;5127;50.922;6.988;2022-08-19T08:41:44;15.35;;;13.82;;
10170;SDS011;5127;50.922;6.988;2022-08-19T08:44:17;15.95;;;14.07;;
10170;SDS011;5127;50.922;6.988;2022-08-19T08:46:48;15.90;;;14.32;;
10170;SDS011;5127;50.922;6.988;2022-08-19T08:49:20;15.45;;;13.95;;
10170;SDS011;5127;50.922;6.988;2022-08-19T08:51:58;16.75;;;15.07;;
10170;SDS011;5127;50.922;6.988;2022-08-19T08:54:32;16.83;;;15.13;;
10170;SDS011;5127;50.922;6.988;2022-08-19T08:57:02;18.13;;;16.42;;
10170;SDS011;5127;50.922;6.988;2022-08-19T08:59:35;18.95;;;17.05;;
10170;SDS011;5127;50.922;6.988;2022-08-19T09:02:06;18.05;;;16.25;;
10170;SDS011;5127;50.922;6.988;2022-08-19T09:04:34;18.77;;;16.98;;
10170;SDS011;5127;50.922;6.988;2022-08-19T09:07:11;20.75;;;18.52;;
10170;SDS011;5127;50.922;6.988;2022-08-19T09:09:50;20.05;;;18.00;;
10170;SDS011;5127;50.922;6.988;2022-08-19T09:12:20;17.33;;;15.75;;
10170;SDS011;5127;50.922;6.988;2022-08-19T09:14:53;18.00;;;16.27;;
10170;SDS011;5127;50.922;6.988;2022-08-19T09:17:25;19.23;;;17.23;;
10170;SDS011;5127;50.922;6.988;2022-08-19T09:19:58;18.52;;;16.73;;
10170;SDS011;5127;50.922;6.988;2022-08-19T09:22:29;17.90;;;16.25;;
10170;SDS011;5127;50.922;6.988;2022-08-19T09:24:58;19.15;;;17.30;;
10170;SDS011;5127;50.922;6.988;2022-08-19T09:27:26;20.13;;;18.05;;
10170;SDS011;5127;50.922;6.988;2022-08-19T09:29:54;19.63;;;17.63;;
10170;SDS011;5127;50.922;6.988;2022-08-19T09:32:21;18.17;;;16.58;;
10170;SDS011;5127;50.922;6.988;2022-08-19T09:34:50;14.35;;;12.98;;
10170;SDS011;5127;50.922;6.988;2022-08-19T09:37:20;13.27;;;12.05;;
10170;SDS011;5127;50.922;6.988;2022-08-19T09:39:47;15.65;;;13.65;;
10170;SDS011;5127;50.922;6.988;2022-08-19T09:42:16;13.20;;;12.05;;
10170;SDS011;5127;50.922;6.988;2022-08-19T09:44:43;13.57;;;12.38;;
10170;SDS011;5127;50.922;6.988;2022-08-19T09:47:11;13.60;;;12.38;;
10170;SDS011;5127;50.922;6.988;2022-08-19T09:49:40;11.77;;;10.57;;
10170;SDS011;5127;50.922;6.988;2022-08-19T09:52:08;12.60;;;11.40;;
10170;SDS011;5127;50.922;6.988;2022-08-19T09:54:36;12.13;;;10.93;;
10170;SDS011;5127;50.922;6.988;2022-08-19T09:57:05;14.77;;;10.63;;
10170;SDS011;5127;50.922;6.988;2022-08-19T09:59:34;10.63;;;9.68;;
10170;SDS011;5127;50.922;6.988;2022-08-19T10:02:01;12.82;;;11.60;;
10170;SDS011;5127;50.922;6.988;2022-08-19T10:04:28;13.25;;;11.88;;
10170;SDS011;5127;50.922;6.988;2022-08-19T10:07:09;11.57;;;10.40;;
10170;SDS011;5127;50.922;6.988;2022-08-19T10:09:37;9.82;;;8.93;;
10170;SDS011;5127;50.922;6.988;2022-08-19T10:12:06;17.73;;;10.30;;
10170;SDS011;5127;50.922;6.988;2022-08-19T10:14:36;10.23;;;9.23;;
10170;SDS011;5127;50.922;6.988;2022-08-19T10:17:04;8.35;;;7.30;;
10170;SDS011;5127;50.922;6.988;2022-08-19T10:19:31;8.70;;;7.85;;
10170;SDS011;5127;50.922;6.988;2022-08-19T10:22:04;9.45;;;8.50;;
10170;SDS011;5127;50.922;6.988;2022-08-19T10:24:32;8.38;;;7.68;;
10170;SDS011;5127;50.922;6.988;2022-08-19T10:27:00;9.13;;;8.23;;
10170;SDS011;5127;50.922;6.988;2022-08-19T10:29:29;9.88;;;8.88;;
10170;SDS011;5127;50.922;6.988;2022-08-19T10:31:58;9.85;;;8.98;;
10170;SDS011;5127;50.922;6.988;2022-08-19T10:34:27;10.65;;;9.65;;
10170;SDS011;5127;50.922;6.988;2022-08-19T10:36:55;9.05;;;8.27;;
10170;SDS011;5127;50.922;6.988;2022-08-19T10:39:24;11.30;;;9.65;;
10170;SDS011;5127;50.922;6.988;2022-08-19T10:41:51;9.43;;;8.55;;
10170;SDS011;5127;50.922;6.988;2022-08-19T10:44:18;10.00;;;9.05;;
10170;SDS011;5127;50.922;6.988;2022-08-19T10:46:47;11.63;;;10.48;;
10170;SDS011;5127;50.922;6.988;2022-08-19T10:49:15;8.57;;;7.88;;
10170;SDS011;5127;50.922;6.988;2022-08-19T10:51:44;9.80;;;9.00;;
10170;SDS011;5127;50.922;6.988;2022-08-19T10:54:29;9.25;;;8.55;;
10170;SDS011;5127;50.922;6.988;2022-08-19T10:57:10;9.45;;;8.55;;
10170;SDS011;5127;50.922;6.988;2022-08-19T10:59:37;9.88;;;8.95;;
10170;SDS011;5127;50.922;6.988;2022-08-19T11:02:06;9.43;;;8.65;;
10170;SDS011;5127;50.922;6.988;2022-08-19T11:04:37;9.40;;;8.60;;
10170;SDS011;5127;50.922;6.988;2022-08-19T11:07:06;11.27;;;10.13;;
10170;SDS011;5127;50.922;6.988;2022-08-19T11:09:36;10.48;;;9.57;;
10170;SDS011;5127;50.922;6.988;2022-08-19T11:12:05;10.73;;;9.77;;
10170;SDS011;5127;50.922;6.988;2022-08-19T11:14:35;11.50;;;10.18;;
10170;SDS011;5127;50.922;6.988;2022-08-19T11:17:03;11.57;;;10.68;;
10170;SDS011;5127;50.922;6.988;2022-08-19T11:19:32;10.43;;;9.43;;
10170;SDS011;5127;50.922;6.988;2022-08-19T11:22:01;10.25;;;9.35;;
10170;SDS011;5127;50.922;6.988;2022-08-19T11:24:29;10.65;;;9.73;;
10170;SDS011;5127;50.922;6.988;2022-08-19T11:27:00;10.25;;;9.35;;
10170;SDS011;5127;50.922;6.988;2022-08-19T11:29:31;9.07;;;7.97;;
10170;SDS011;5127;50.922;6.988;2022-08-19T11:32:00;9.10;;;8.38;;
10170;SDS011;5127;50.922;6.988;2022-08-19T11:34:31;8.90;;;8.20;;
10170;SDS011;5127;50.922;6.988;2022-08-19T11:36:58;8.65;;;7.95;;
10170;SDS011;5127;50.922;6.988;2022-08-19T11:39:28;9.40;;;8.55;;
10170;SDS011;5127;50.922;6.988;2022-08-19T11:41:57;9.45;;;8.55;;
10170;SDS011;5127;50.922;6.988;2022-08-19T11:44:26;7.45;;;6.85;;
10170;SDS011;5127;50.922;6.988;2022-08-19T11:46:55;7.55;;;6.93;;
10170;SDS011;5127;50.922;6.988;2022-08-19T11:49:23;7.53;;;6.82;;
10170;SDS011;5127;50.922;6.988;2022-08-19T11:51:50;7.53;;;6.82;;
10170;SDS011;5127;50.922;6.988;2022-08-19T11:54:18;6.75;;;6.25;;
10170;SDS011;5127;50.922;6.988;2022-08-19T11:56:47;7.05;;;6.45;;
10170;SDS011;5127;50.922;6.988;2022-08-19T11:59:14;6.53;;;5.93;;
10170;SDS011;5127;50.922;6.988;2022-08-19T12:01:42;6.38;;;5.78;;
10170;SDS011;5127;50.922;6.988;2022-08-19T12:04:10;6.75;;;6.15;;
10170;SDS011;5127;50.922;6.988;2022-08-19T12:06:38;7.25;;;6.70;;
10170;SDS011;5127;50.922;6.988;2022-08-19T12:09:07;6.90;;;6.28;;
10170;SDS011;5127;50.922;6.988;2022-08-19T12:11:35;7.38;;;6.63;;
10170;SDS011;5127;50.922;6.988;2022-08-19T12:14:05;7.68;;;7.07;;
10170;SDS011;5127;50.922;6.988;2022-08-19T12:16:33;6.65;;;6.15;;
10170;SDS011;5127;50.922;6.988;2022-08-19T12:19:00;6.95;;;6.35;;
10170;SDS011;5127;50.922;6.988;2022-08-19T12:21:31;6.82;;;6.22;;
10170;SDS011;5127;50.922;6.988;2022-08-19T12:24:00;7.00;;;6.40;;
10170;SDS011;5127;50.922;6.988;2022-08-19T12:26:29;6.70;;;6.07;;
10170;SDS011;5127;50.922;6.988;2022-08-19T12:28:57;7.30;;;5.90;;
10170;SDS011;5127;50.922;6.988;2022-08-19T12:31:27;6.22;;;5.72;;
10170;SDS011;5127;50.922;6.988;2022-08-19T12:33:55;6.45;;;5.45;;
10170;SDS011;5127;50.922;6.988;2022-08-19T12:36:22;6.32;;;5.75;;
10170;SDS011;5127;50.922;6.988;2022-08-19T12:38:50;5.60;;;5.15;;
10170;SDS011;5127;50.922;6.988;2022-08-19T12:41:18;5.72;;;5.28;;
10170;SDS011;5127;50.922;6.988;2022-08-19T12:43:47;5.82;;;5.32;;
10170;SDS011;5127;50.922;6.988;2022-08-19T12:46:16;5.15;;;4.75;;
10170;SDS011;5127;50.922;6.988;2022-08-19T12:48:45;5.68;;;5.20;;
10170;SDS011;5127;50.922;6.988;2022-08-19T12:51:14;6.78;;;6.18;;
10170;SDS011;5127;50.922;6.988;2022-08-19T12:53:43;5.47;;;5.07;;
10170;SDS011;5127;50.922;6.988;2022-08-19T12:56:11;6.15;;;5.65;;
10170;SDS011;5127;50.922;6.988;2022-08-19T12:58:40;6.13;;;5.63;;
10170;SDS011;5127;50.922;6.988;2022-08-19T13:01:09;7.13;;;6.53;;
10170;SDS011;5127;50.922;6.988;2022-08-19T13:03:37;6.45;;;5.95;;
10170;SDS011;5127;50.922;6.988;2022-08-19T13:06:07;6.43;;;5.82;;
10170;SDS011;5127;50.922;6.988;2022-08-19T13:08:34;6.05;;;5.55;;
10170;SDS011;5127;50.922;6.988;2022-08-19T13:11:12;5.95;;;5.35;;
10170;SDS011;5127;50.922;6.988;2022-08-19T13:13:40;6.05;;;5.50;;
10170;SDS011;5127;50.922;6.988;2022-08-19T13:16:09;6.05;;;5.60;;
10170;SDS011;5127;50.922;6.988;2022-08-19T13:18:38;6.05;;;5.55;;
10170;SDS011;5127;50.922;6.988;2022-08-19T13:21:09;6.50;;;5.90;;
10170;SDS011;5127;50.922;6.988;2022-08-19T13:23:39;5.65;;;5.15;;
10170;SDS011;5127;50.922;6.988;2022-08-19T13:26:07;6.38;;;5.78;;
10170;SDS011;5127;50.922;6.988;2022-08-19T13:28:37;5.30;;;4.90;;
10170;SDS011;5127;50.922;6.988;2022-08-19T13:31:23;7.80;;;5.60;;
10170;SDS011;5127;50.922;6.988;2022-08-19T13:34:11;5.80;;;5.30;;
10170;SDS011;5127;50.922;6.988;2022-08-19T13:36:40;5.22;;;4.82;;
10170;SDS011;5127;50.922;6.988;2022-08-19T13:39:07;5.65;;;5.20;;
10170;SDS011;5127;50.922;6.988;2022-08-19T13:41:35;5.30;;;4.82;;
10170;SDS011;5127;50.922;6.988;2022-08-19T13:44:03;4.85;;;4.45;;
10170;SDS011;5127;50.922;6.988;2022-08-19T13:46:31;5.50;;;5.00;;
10170;SDS011;5127;50.922;6.988;2022-08-19T13:48:59;5.28;;;4.78;;
10170;SDS011;5127;50.922;6.988;2022-08-19T13:51:26;4.90;;;4.50;;
10170;SDS011;5127;50.922;6.988;2022-08-19T13:53:55;5.13;;;4.45;;
10170;SDS011;5127;50.922;6.988;2022-08-19T13:56:22;4.72;;;4.32;;
10170;SDS011;5127;50.922;6.988;2022-08-19T13:58:49;4.70;;;4.30;;
10170;SDS011;5127;50.922;6.988;2022-08-19T14:01:22;5.60;;;4.18;;
10170;SDS011;5127;50.922;6.988;2022-08-19T14:03:52;4.78;;;4.38;;
10170;SDS011;5127;50.922;6.988;2022-08-19T14:06:19;4.57;;;4.20;;
10170;SDS011;5127;50.922;6.988;2022-08-19T14:08:46;5.38;;;4.32;;
10170;SDS011;5127;50.922;6.988;2022-08-19T14:11:15;5.05;;;4.55;;
10170;SDS011;5127;50.922;6.988;2022-08-19T14:13:42;5.63;;;4.93;;
10170;SDS011;5127;50.922;6.988;2022-08-19T14:16:11;5.82;;;4.63;;
10170;SDS011;5127;50.922;6.988;2022-08-19T14:18:40;4.50;;;4.10;;
10170;SDS011;5127;50.922;6.988;2022-08-19T14:21:13;5.00;;;4.50;;
10170;SDS011;5127;50.922;6.988;2022-08-19T14:23:42;5.15;;;4.65;;
10170;SDS011;5127;50.922;6.988;2022-08-19T14:26:11;4.65;;;4.25;;
10170;SDS011;5127;50.922;6.988;2022-08-19T14:28:41;5.00;;;4.50;;
10170;SDS011;5127;50.922;6.988;2022-08-19T14:31:09;5.55;;;4.45;;
10170;SDS011;5127;50.922;6.988;2022-08-19T14:33:38;4.90;;;4.45;;
10170;SDS011;5127;50.922;6.988;2022-08-19T14:36:06;4.80;;;4.40;;
10170;SDS011;5127;50.922;6.988;2022-08-19T14:38:33;4.55;;;4.15;;
10170;SDS011;5127;50.922;6.988;2022-08-19T14:41:08;4.90;;;4.50;;
10170;SDS011;5127;50.922;6.988;2022-08-19T14:43:37;4.72;;;4.28;;
10170;SDS011;5127;50.922;6.988;2022-08-19T14:46:06;4.70;;;4.00;;
10170;SDS011;5127;50.922;6.988;2022-08-19T14:48:33;5.97;;;4.28;;
10170;SDS011;5127;50.922;6.988;2022-08-19T14:51:01;4.25;;;3.92;;
10170;SDS011;5127;50.922;6.988;2022-08-19T14:53:29;4.40;;;4.00;;
10170;SDS011;5127;50.922;6.988;2022-08-19T14:55:59;4.78;;;4.38;;
10170;SDS011;5127;50.922;6.988;2022-08-19T14:58:27;5.32;;;4.40;;
10170;SDS011;5127;50.922;6.988;2022-08-19T15:00:54;3.80;;;3.50;;
10170;SDS011;5127;50.922;6.988;2022-08-19T15:03:23;4.38;;;3.97;;